Terminal Aerodrome Forecast
Issued by NWS

Home | Current Version | Previous Version | Text Only | Print | Product List | Glossary On
Versions: 1 2 3 4 5 6 7 8 9 10 11 12 13 14 15 16 17 18 19 20 21 22 23 24 25 26 27 28 29 30 31 32 33 34 35 36 37 38
374
FTUS45 KGJT 061729
TAFRIL
TAF
KRIL 061729Z 0618/0718 VRB04KT P6SM BKN120
     FM062200 27005KT P6SM VCSH BKN050
     FM070300 28009KT P6SM VCSH OVC040
     FM070800 29010G19KT P6SM VCSH OVC030
     FM071100 27010G19KT P6SM BKN035
     FM071500 30005KT P6SM BKN035=

USA.gov is the U.S. government's official web portal to all federal, state and local government web resources and services.